Fort Liard, Canada
Current Conditions -  °F | °C
As of 7:00 PM on Wednesday 17 Dec 2014 (Local Time) from CYYE Reporting Station
Broken Clouds Broken Clouds  
Wind Chill:   Ceiling: 5000
Heat Index:   Visibility: 15mi
Dew Point:   Wind: 2mph
Humidity: 85%   Direction: 160°SSE
Pressure: 29.77"   Gusts: NA
Location:  60.23°N, 123.48°W
Report Text: CYYE 180200Z 16002KT 15SM BKN050 M16/M18 A2977 RMK SC7 SLP123
Loading
Personal Weather Stations






























Interactive Weather Map New forecast layout! Learn more

10-Day Weather Forecast

Advertisements
Track Severe Weather on mobile